sensor_id;sensor_type;location;lat;lon;timestamp;temperature;humidity
59977;DHT22;45837;51.076;3.578;2023-06-10T00:02:16;24.80;48.90
59977;DHT22;45837;51.076;3.578;2023-06-10T00:04:42;24.70;48.80
59977;DHT22;45837;51.076;3.578;2023-06-10T00:07:08;24.70;48.70
59977;DHT22;45837;51.076;3.578;2023-06-10T00:09:37;24.70;48.90
59977;DHT22;45837;51.076;3.578;2023-06-10T00:12:06;24.70;48.40
59977;DHT22;45837;51.076;3.578;2023-06-10T00:14:36;24.70;48.80
59977;DHT22;45837;51.076;3.578;2023-06-10T00:17:03;24.70;48.40
59977;DHT22;45837;51.076;3.578;2023-06-10T00:19:28;24.70;48.60
59977;DHT22;45837;51.076;3.578;2023-06-10T00:21:56;24.70;48.60
59977;DHT22;45837;51.076;3.578;2023-06-10T00:24:21;24.70;48.40
59977;DHT22;45837;51.076;3.578;2023-06-10T00:26:47;24.70;48.90
59977;DHT22;45837;51.076;3.578;2023-06-10T00:29:13;24.70;48.80
59977;DHT22;45837;51.076;3.578;2023-06-10T00:31:39;24.70;48.60
59977;DHT22;45837;51.076;3.578;2023-06-10T00:34:08;24.70;48.60
59977;DHT22;45837;51.076;3.578;2023-06-10T00:36:34;24.60;48.50
59977;DHT22;45837;51.076;3.578;2023-06-10T00:39:01;24.60;48.50
59977;DHT22;45837;51.076;3.578;2023-06-10T00:41:27;24.60;48.40
59977;DHT22;45837;51.076;3.578;2023-06-10T00:43:52;24.60;49.30
59977;DHT22;45837;51.076;3.578;2023-06-10T00:46:18;24.60;49.10
59977;DHT22;45837;51.076;3.578;2023-06-10T00:48:45;24.60;48.40
59977;DHT22;45837;51.076;3.578;2023-06-10T00:51:11;24.60;48.50
59977;DHT22;45837;51.076;3.578;2023-06-10T00:53:40;24.60;48.80
59977;DHT22;45837;51.076;3.578;2023-06-10T00:56:07;24.60;48.40
59977;DHT22;45837;51.076;3.578;2023-06-10T00:58:34;24.60;48.50
59977;DHT22;45837;51.076;3.578;2023-06-10T01:01:00;24.60;48.40
59977;DHT22;45837;51.076;3.578;2023-06-10T01:03:27;24.60;48.90
59977;DHT22;45837;51.076;3.578;2023-06-10T01:05:54;24.60;49.10
59977;DHT22;45837;51.076;3.578;2023-06-10T01:08:28;24.60;48.50
59977;DHT22;45837;51.076;3.578;2023-06-10T01:11:01;24.60;48.40
59977;DHT22;45837;51.076;3.578;2023-06-10T01:13:29;24.50;48.50
59977;DHT22;45837;51.076;3.578;2023-06-10T01:15:57;24.50;48.40
59977;DHT22;45837;51.076;3.578;2023-06-10T01:18:23;24.50;48.40
59977;DHT22;45837;51.076;3.578;2023-06-10T01:20:57;24.50;48.60
59977;DHT22;45837;51.076;3.578;2023-06-10T01:23:23;24.50;49.10
59977;DHT22;45837;51.076;3.578;2023-06-10T01:26:10;24.40;49.00
59977;DHT22;45837;51.076;3.578;2023-06-10T01:28:46;24.50;48.30
59977;DHT22;45837;51.076;3.578;2023-06-10T01:31:36;24.40;48.10
59977;DHT22;45837;51.076;3.578;2023-06-10T01:34:07;24.40;48.70
59977;DHT22;45837;51.076;3.578;2023-06-10T01:36:34;24.40;48.10
59977;DHT22;45837;51.076;3.578;2023-06-10T01:39:01;24.40;48.20
59977;DHT22;45837;51.076;3.578;2023-06-10T01:41:27;24.40;48.30
59977;DHT22;45837;51.076;3.578;2023-06-10T01:43:54;24.50;48.30
59977;DHT22;45837;51.076;3.578;2023-06-10T01:46:20;24.40;48.30
59977;DHT22;45837;51.076;3.578;2023-06-10T01:48:46;24.40;48.80
59977;DHT22;45837;51.076;3.578;2023-06-10T01:51:12;24.40;48.60
59977;DHT22;45837;51.076;3.578;2023-06-10T01:53:38;24.40;49.00
59977;DHT22;45837;51.076;3.578;2023-06-10T01:56:04;24.40;48.60
59977;DHT22;45837;51.076;3.578;2023-06-10T01:58:29;24.40;48.40
59977;DHT22;45837;51.076;3.578;2023-06-10T02:00:55;24.40;48.60
59977;DHT22;45837;51.076;3.578;2023-06-10T02:03:21;24.40;48.60
59977;DHT22;45837;51.076;3.578;2023-06-10T02:05:47;24.30;48.60
59977;DHT22;45837;51.076;3.578;2023-06-10T02:08:15;24.30;48.70
59977;DHT22;45837;51.076;3.578;2023-06-10T02:10:40;24.30;48.80
59977;DHT22;45837;51.076;3.578;2023-06-10T02:13:06;24.30;48.90
59977;DHT22;45837;51.076;3.578;2023-06-10T02:15:33;24.30;48.90
59977;DHT22;45837;51.076;3.578;2023-06-10T02:17:59;24.30;48.90
59977;DHT22;45837;51.076;3.578;2023-06-10T02:20:25;24.30;48.80
59977;DHT22;45837;51.076;3.578;2023-06-10T02:22:50;24.30;49.00
59977;DHT22;45837;51.076;3.578;2023-06-10T02:25:16;24.30;49.10
59977;DHT22;45837;51.076;3.578;2023-06-10T02:27:42;24.30;49.10
59977;DHT22;45837;51.076;3.578;2023-06-10T02:30:08;24.30;49.10
59977;DHT22;45837;51.076;3.578;2023-06-10T02:32:36;24.30;49.10
59977;DHT22;45837;51.076;3.578;2023-06-10T02:35:02;24.30;49.20
59977;DHT22;45837;51.076;3.578;2023-06-10T02:37:28;24.30;49.20
59977;DHT22;45837;51.076;3.578;2023-06-10T02:39:55;24.30;49.40
59977;DHT22;45837;51.076;3.578;2023-06-10T02:42:21;24.30;49.70
59977;DHT22;45837;51.076;3.578;2023-06-10T02:44:48;24.30;49.50
59977;DHT22;45837;51.076;3.578;2023-06-10T02:47:21;24.30;49.40
59977;DHT22;45837;51.076;3.578;2023-06-10T02:49:46;24.30;49.70
59977;DHT22;45837;51.076;3.578;2023-06-10T02:52:12;24.30;49.40
59977;DHT22;45837;51.076;3.578;2023-06-10T02:54:39;24.30;49.60
59977;DHT22;45837;51.076;3.578;2023-06-10T02:57:07;24.30;49.40
59977;DHT22;45837;51.076;3.578;2023-06-10T02:59:33;24.20;49.50
59977;DHT22;45837;51.076;3.578;2023-06-10T03:01:59;24.20;49.40
59977;DHT22;45837;51.076;3.578;2023-06-10T03:04:29;24.30;49.50
59977;DHT22;45837;51.076;3.578;2023-06-10T03:07:10;24.30;49.60
59977;DHT22;45837;51.076;3.578;2023-06-10T03:09:36;24.20;49.50
59977;DHT22;45837;51.076;3.578;2023-06-10T03:12:03;24.30;49.70
59977;DHT22;45837;51.076;3.578;2023-06-10T03:14:35;24.20;49.70
59977;DHT22;45837;51.076;3.578;2023-06-10T03:17:01;24.30;49.90
59977;DHT22;45837;51.076;3.578;2023-06-10T03:19:29;24.30;49.70
59977;DHT22;45837;51.076;3.578;2023-06-10T03:22:09;24.30;49.90
59977;DHT22;45837;51.076;3.578;2023-06-10T03:24:38;24.30;49.70
59977;DHT22;45837;51.076;3.578;2023-06-10T03:27:07;24.30;49.80
59977;DHT22;45837;51.076;3.578;2023-06-10T03:29:33;24.30;49.80
59977;DHT22;45837;51.076;3.578;2023-06-10T03:31:59;24.30;50.40
59977;DHT22;45837;51.076;3.578;2023-06-10T03:34:26;24.30;50.00
59977;DHT22;45837;51.076;3.578;2023-06-10T03:36:52;24.30;50.20
59977;DHT22;45837;51.076;3.578;2023-06-10T03:39:18;24.30;50.10
59977;DHT22;45837;51.076;3.578;2023-06-10T03:41:44;24.30;50.50
59977;DHT22;45837;51.076;3.578;2023-06-10T03:44:10;24.30;50.00
59977;DHT22;45837;51.076;3.578;2023-06-10T03:46:36;24.30;50.00
59977;DHT22;45837;51.076;3.578;2023-06-10T03:49:02;24.30;50.00
59977;DHT22;45837;51.076;3.578;2023-06-10T03:51:29;24.30;50.00
59977;DHT22;45837;51.076;3.578;2023-06-10T03:53:55;24.20;50.40
59977;DHT22;45837;51.076;3.578;2023-06-10T03:56:21;24.20;50.40
59977;DHT22;45837;51.076;3.578;2023-06-10T03:58:46;24.20;50.70
59977;DHT22;45837;51.076;3.578;2023-06-10T04:01:12;24.20;50.20
59977;DHT22;45837;51.076;3.578;2023-06-10T04:03:43;24.20;50.10
59977;DHT22;45837;51.076;3.578;2023-06-10T04:06:09;24.20;50.50
59977;DHT22;45837;51.076;3.578;2023-06-10T04:08:35;24.30;50.30
59977;DHT22;45837;51.076;3.578;2023-06-10T04:11:01;24.30;50.60
59977;DHT22;45837;51.076;3.578;2023-06-10T04:13:27;24.20;50.50
59977;DHT22;45837;51.076;3.578;2023-06-10T04:15:56;24.30;50.60
59977;DHT22;45837;51.076;3.578;2023-06-10T04:18:22;24.30;50.50
59977;DHT22;45837;51.076;3.578;2023-06-10T04:20:49;24.30;50.40
59977;DHT22;45837;51.076;3.578;2023-06-10T04:23:14;24.40;50.60
59977;DHT22;45837;51.076;3.578;2023-06-10T04:25:42;24.30;50.40
59977;DHT22;45837;51.076;3.578;2023-06-10T04:28:08;24.30;50.70
59977;DHT22;45837;51.076;3.578;2023-06-10T04:30:35;24.40;50.80
59977;DHT22;45837;51.076;3.578;2023-06-10T04:33:01;24.40;50.60
59977;DHT22;45837;51.076;3.578;2023-06-10T04:35:27;24.40;50.60
59977;DHT22;45837;51.076;3.578;2023-06-10T04:37:56;24.40;50.60
59977;DHT22;45837;51.076;3.578;2023-06-10T04:40:22;24.40;50.50
59977;DHT22;45837;51.076;3.578;2023-06-10T04:42:48;24.40;50.60
59977;DHT22;45837;51.076;3.578;2023-06-10T04:45:14;24.40;50.80
59977;DHT22;45837;51.076;3.578;2023-06-10T04:47:40;24.40;50.90
59977;DHT22;45837;51.076;3.578;2023-06-10T04:50:06;24.50;50.90
59977;DHT22;45837;51.076;3.578;2023-06-10T04:52:32;24.50;50.70
59977;DHT22;45837;51.076;3.578;2023-06-10T04:54:59;24.50;50.50
59977;DHT22;45837;51.076;3.578;2023-06-10T04:57:25;24.60;51.30
59977;DHT22;45837;51.076;3.578;2023-06-10T04:59:52;24.60;50.60
59977;DHT22;45837;51.076;3.578;2023-06-10T05:02:17;24.70;50.30
59977;DHT22;45837;51.076;3.578;2023-06-10T05:04:43;24.70;50.70
59977;DHT22;45837;51.076;3.578;2023-06-10T05:07:08;24.80;50.30
59977;DHT22;45837;51.076;3.578;2023-06-10T05:09:34;24.80;50.40
59977;DHT22;45837;51.076;3.578;2023-06-10T05:12:00;24.90;50.00
59977;DHT22;45837;51.076;3.578;2023-06-10T05:14:25;25.00;50.30
59977;DHT22;45837;51.076;3.578;2023-06-10T05:16:51;25.00;50.70
59977;DHT22;45837;51.076;3.578;2023-06-10T05:19:17;25.00;50.50
59977;DHT22;45837;51.076;3.578;2023-06-10T05:21:43;25.00;50.50
59977;DHT22;45837;51.076;3.578;2023-06-10T05:24:09;25.00;50.30
59977;DHT22;45837;51.076;3.578;2023-06-10T05:26:35;25.00;50.90
59977;DHT22;45837;51.076;3.578;2023-06-10T05:29:03;25.00;50.70
59977;DHT22;45837;51.076;3.578;2023-06-10T05:31:28;25.00;50.90
59977;DHT22;45837;51.076;3.578;2023-06-10T05:33:54;25.00;51.20
59977;DHT22;45837;51.076;3.578;2023-06-10T05:36:20;25.00;51.00
59977;DHT22;45837;51.076;3.578;2023-06-10T05:38:46;25.00;50.80
59977;DHT22;45837;51.076;3.578;2023-06-10T05:41:11;25.00;50.80
59977;DHT22;45837;51.076;3.578;2023-06-10T05:43:37;25.10;51.40
59977;DHT22;45837;51.076;3.578;2023-06-10T05:46:03;25.10;50.90
59977;DHT22;45837;51.076;3.578;2023-06-10T05:48:28;25.10;51.40
59977;DHT22;45837;51.076;3.578;2023-06-10T05:50:54;25.10;51.50
59977;DHT22;45837;51.076;3.578;2023-06-10T05:53:20;25.10;51.10
59977;DHT22;45837;51.076;3.578;2023-06-10T05:55:45;25.10;51.00
59977;DHT22;45837;51.076;3.578;2023-06-10T05:58:11;25.10;51.50
59977;DHT22;45837;51.076;3.578;2023-06-10T06:00:38;25.10;50.70
59977;DHT22;45837;51.076;3.578;2023-06-10T06:03:05;25.10;50.80
59977;DHT22;45837;51.076;3.578;2023-06-10T06:05:31;25.10;51.00
59977;DHT22;45837;51.076;3.578;2023-06-10T06:08:03;25.10;51.10
59977;DHT22;45837;51.076;3.578;2023-06-10T06:10:29;25.00;50.80
59977;DHT22;45837;51.076;3.578;2023-06-10T06:12:55;25.00;51.10
59977;DHT22;45837;51.076;3.578;2023-06-10T06:15:20;25.00;51.40
59977;DHT22;45837;51.076;3.578;2023-06-10T06:17:46;25.00;51.70
59977;DHT22;45837;51.076;3.578;2023-06-10T06:20:12;25.00;52.00
59977;DHT22;45837;51.076;3.578;2023-06-10T06:22:37;25.00;51.50
59977;DHT22;45837;51.076;3.578;2023-06-10T06:25:03;25.00;52.10
59977;DHT22;45837;51.076;3.578;2023-06-10T06:27:29;25.00;51.60
59977;DHT22;45837;51.076;3.578;2023-06-10T06:29:54;25.00;51.40
59977;DHT22;45837;51.076;3.578;2023-06-10T06:32:20;25.00;51.80
59977;DHT22;45837;51.076;3.578;2023-06-10T06:34:48;25.00;51.30
59977;DHT22;45837;51.076;3.578;2023-06-10T06:37:22;25.00;51.20
59977;DHT22;45837;51.076;3.578;2023-06-10T06:39:51;25.00;51.20
59977;DHT22;45837;51.076;3.578;2023-06-10T06:42:16;25.00;51.80
59977;DHT22;45837;51.076;3.578;2023-06-10T06:44:55;25.00;51.70
59977;DHT22;45837;51.076;3.578;2023-06-10T06:47:21;25.10;51.50
59977;DHT22;45837;51.076;3.578;2023-06-10T06:49:46;25.10;51.60
59977;DHT22;45837;51.076;3.578;2023-06-10T06:52:12;25.00;51.60
59977;DHT22;45837;51.076;3.578;2023-06-10T06:54:38;25.00;51.40
59977;DHT22;45837;51.076;3.578;2023-06-10T06:57:04;25.00;51.60
59977;DHT22;45837;51.076;3.578;2023-06-10T06:59:29;25.00;51.40
59977;DHT22;45837;51.076;3.578;2023-06-10T07:01:55;25.00;51.60
59977;DHT22;45837;51.076;3.578;2023-06-10T07:04:21;25.10;51.70
59977;DHT22;45837;51.076;3.578;2023-06-10T07:06:47;25.00;53.00
59977;DHT22;45837;51.076;3.578;2023-06-10T07:09:13;25.00;52.50
59977;DHT22;45837;51.076;3.578;2023-06-10T07:11:39;25.00;53.20
59977;DHT22;45837;51.076;3.578;2023-06-10T07:14:06;25.00;53.00
59977;DHT22;45837;51.076;3.578;2023-06-10T07:16:32;25.00;52.10
59977;DHT22;45837;51.076;3.578;2023-06-10T07:18:57;25.00;52.70
59977;DHT22;45837;51.076;3.578;2023-06-10T07:21:23;25.00;52.00
59977;DHT22;45837;51.076;3.578;2023-06-10T07:23:49;25.00;52.20
59977;DHT22;45837;51.076;3.578;2023-06-10T07:26:17;25.00;52.00
59977;DHT22;45837;51.076;3.578;2023-06-10T07:28:43;25.00;52.30
59977;DHT22;45837;51.076;3.578;2023-06-10T07:31:09;25.00;53.10
59977;DHT22;45837;51.076;3.578;2023-06-10T07:33:34;25.00;52.90
59977;DHT22;45837;51.076;3.578;2023-06-10T07:36:00;25.00;52.40
59977;DHT22;45837;51.076;3.578;2023-06-10T07:38:26;25.00;52.10
59977;DHT22;45837;51.076;3.578;2023-06-10T07:40:51;25.00;52.10
59977;DHT22;45837;51.076;3.578;2023-06-10T07:43:17;25.00;52.30
59977;DHT22;45837;51.076;3.578;2023-06-10T07:45:43;25.00;52.80
59977;DHT22;45837;51.076;3.578;2023-06-10T07:48:09;25.00;53.00
59977;DHT22;45837;51.076;3.578;2023-06-10T07:50:34;25.00;52.50
59977;DHT22;45837;51.076;3.578;2023-06-10T07:53:00;25.00;52.80
59977;DHT22;45837;51.076;3.578;2023-06-10T07:55:26;25.00;53.50
59977;DHT22;45837;51.076;3.578;2023-06-10T07:57:52;25.00;54.00
59977;DHT22;45837;51.076;3.578;2023-06-10T08:00:18;25.00;52.70
59977;DHT22;45837;51.076;3.578;2023-06-10T08:02:44;25.00;53.20
59977;DHT22;45837;51.076;3.578;2023-06-10T08:05:10;25.00;53.30
59977;DHT22;45837;51.076;3.578;2023-06-10T08:07:39;25.00;53.20
59977;DHT22;45837;51.076;3.578;2023-06-10T08:10:05;25.10;52.20
59977;DHT22;45837;51.076;3.578;2023-06-10T08:12:31;24.60;52.10
59977;DHT22;45837;51.076;3.578;2023-06-10T08:14:57;25.00;52.70
59977;DHT22;45837;51.076;3.578;2023-06-10T08:17:22;25.00;53.50
59977;DHT22;45837;51.076;3.578;2023-06-10T08:19:48;25.00;52.50
59977;DHT22;45837;51.076;3.578;2023-06-10T08:22:18;25.00;53.00
59977;DHT22;45837;51.076;3.578;2023-06-10T08:24:50;25.00;52.30
59977;DHT22;45837;51.076;3.578;2023-06-10T08:27:16;25.10;52.90
59977;DHT22;45837;51.076;3.578;2023-06-10T08:29:42;25.00;52.60
59977;DHT22;45837;51.076;3.578;2023-06-10T08:32:08;25.00;52.70
59977;DHT22;45837;51.076;3.578;2023-06-10T08:34:33;25.00;52.80
59977;DHT22;45837;51.076;3.578;2023-06-10T08:37:00;25.10;52.50
59977;DHT22;45837;51.076;3.578;2023-06-10T08:39:26;25.10;52.90
59977;DHT22;45837;51.076;3.578;2023-06-10T08:44:30;25.00;52.30
59977;DHT22;45837;51.076;3.578;2023-06-10T08:46:56;25.10;52.80
59977;DHT22;45837;51.076;3.578;2023-06-10T08:49:23;25.00;52.60
59977;DHT22;45837;51.076;3.578;2023-06-10T08:51:51;25.00;52.50
59977;DHT22;45837;51.076;3.578;2023-06-10T08:54:21;25.10;52.60
59977;DHT22;45837;51.076;3.578;2023-06-10T08:56:48;25.00;52.40
59977;DHT22;45837;51.076;3.578;2023-06-10T08:59:14;25.00;52.60
59977;DHT22;45837;51.076;3.578;2023-06-10T09:01:42;25.10;52.60
59977;DHT22;45837;51.076;3.578;2023-06-10T09:04:08;25.10;52.70
59977;DHT22;45837;51.076;3.578;2023-06-10T09:06:33;25.00;53.50
59977;DHT22;45837;51.076;3.578;2023-06-10T09:09:01;25.00;52.60
59977;DHT22;45837;51.076;3.578;2023-06-10T09:11:27;25.10;52.80
59977;DHT22;45837;51.076;3.578;2023-06-10T09:13:53;25.00;53.20
59977;DHT22;45837;51.076;3.578;2023-06-10T09:16:19;25.00;53.20
59977;DHT22;45837;51.076;3.578;2023-06-10T09:18:44;25.10;53.70
59977;DHT22;45837;51.076;3.578;2023-06-10T09:21:10;25.10;53.10
59977;DHT22;45837;51.076;3.578;2023-06-10T09:23:36;25.10;53.00
59977;DHT22;45837;51.076;3.578;2023-06-10T09:26:02;25.10;52.70
59977;DHT22;45837;51.076;3.578;2023-06-10T09:28:30;25.10;53.00
59977;DHT22;45837;51.076;3.578;2023-06-10T09:31:05;25.10;53.40
59977;DHT22;45837;51.076;3.578;2023-06-10T09:33:32;25.10;52.50
59977;DHT22;45837;51.076;3.578;2023-06-10T09:35:59;25.10;53.10
59977;DHT22;45837;51.076;3.578;2023-06-10T09:38:29;25.10;52.60
59977;DHT22;45837;51.076;3.578;2023-06-10T09:40:55;25.10;52.80
59977;DHT22;45837;51.076;3.578;2023-06-10T09:43:21;25.10;53.40
59977;DHT22;45837;51.076;3.578;2023-06-10T09:45:50;25.10;53.10
59977;DHT22;45837;51.076;3.578;2023-06-10T09:48:18;25.10;52.50
59977;DHT22;45837;51.076;3.578;2023-06-10T09:50:44;25.10;53.50
59977;DHT22;45837;51.076;3.578;2023-06-10T09:53:11;25.10;53.00
59977;DHT22;45837;51.076;3.578;2023-06-10T09:55:37;25.10;52.90
59977;DHT22;45837;51.076;3.578;2023-06-10T09:58:03;25.10;52.90
59977;DHT22;45837;51.076;3.578;2023-06-10T10:00:31;25.10;52.70
59977;DHT22;45837;51.076;3.578;2023-06-10T10:02:57;25.10;52.90
59977;DHT22;45837;51.076;3.578;2023-06-10T10:05:22;25.10;53.50
59977;DHT22;45837;51.076;3.578;2023-06-10T10:07:49;25.10;53.40
59977;DHT22;45837;51.076;3.578;2023-06-10T10:10:15;25.10;54.20
59977;DHT22;45837;51.076;3.578;2023-06-10T10:12:41;25.10;54.60
59977;DHT22;45837;51.076;3.578;2023-06-10T10:15:07;25.10;54.40
59977;DHT22;45837;51.076;3.578;2023-06-10T10:17:34;25.10;54.80
59977;DHT22;45837;51.076;3.578;2023-06-10T10:20:03;25.10;54.60
59977;DHT22;45837;51.076;3.578;2023-06-10T10:22:29;25.10;54.90
59977;DHT22;45837;51.076;3.578;2023-06-10T10:24:56;25.10;55.00
59977;DHT22;45837;51.076;3.578;2023-06-10T10:27:45;25.10;55.00
59977;DHT22;45837;51.076;3.578;2023-06-10T10:30:08;25.20;55.40
59977;DHT22;45837;51.076;3.578;2023-06-10T10:35:21;25.20;54.90
59977;DHT22;45837;51.076;3.578;2023-06-10T10:37:49;25.30;55.40
59977;DHT22;45837;51.076;3.578;2023-06-10T10:40:16;25.30;55.20
59977;DHT22;45837;51.076;3.578;2023-06-10T10:42:42;25.30;55.40
59977;DHT22;45837;51.076;3.578;2023-06-10T10:45:08;25.30;55.20
59977;DHT22;45837;51.076;3.578;2023-06-10T10:47:34;25.30;55.00
59977;DHT22;45837;51.076;3.578;2023-06-10T10:50:01;25.30;54.80
59977;DHT22;45837;51.076;3.578;2023-06-10T10:52:28;25.30;55.30
59977;DHT22;45837;51.076;3.578;2023-06-10T10:55:14;25.30;55.00
59977;DHT22;45837;51.076;3.578;2023-06-10T10:57:40;25.30;54.80
59977;DHT22;45837;51.076;3.578;2023-06-10T11:00:06;25.30;55.40
59977;DHT22;45837;51.076;3.578;2023-06-10T11:02:36;25.30;54.90
59977;DHT22;45837;51.076;3.578;2023-06-10T11:05:04;25.30;54.90
59977;DHT22;45837;51.076;3.578;2023-06-10T11:07:31;25.30;55.00
59977;DHT22;45837;51.076;3.578;2023-06-10T11:12:25;25.40;54.80
59977;DHT22;45837;51.076;3.578;2023-06-10T11:14:54;25.40;55.10
59977;DHT22;45837;51.076;3.578;2023-06-10T11:17:23;25.40;54.70
59977;DHT22;45837;51.076;3.578;2023-06-10T11:19:49;25.40;55.20
59977;DHT22;45837;51.076;3.578;2023-06-10T11:22:16;25.40;56.50
59977;DHT22;45837;51.076;3.578;2023-06-10T11:24:44;25.40;56.00
59977;DHT22;45837;51.076;3.578;2023-06-10T11:30:26;25.40;56.80
59977;DHT22;45837;51.076;3.578;2023-06-10T11:32:33;25.40;56.90
59977;DHT22;45837;51.076;3.578;2023-06-10T11:34:59;25.50;57.10
59977;DHT22;45837;51.076;3.578;2023-06-10T11:37:25;25.50;57.10
59977;DHT22;45837;51.076;3.578;2023-06-10T11:39:52;25.50;57.60
59977;DHT22;45837;51.076;3.578;2023-06-10T11:42:18;25.50;57.20
59977;DHT22;45837;51.076;3.578;2023-06-10T11:44:48;25.50;57.50
59977;DHT22;45837;51.076;3.578;2023-06-10T11:47:14;25.50;57.40
59977;DHT22;45837;51.076;3.578;2023-06-10T11:49:39;25.50;57.80
59977;DHT22;45837;51.076;3.578;2023-06-10T11:52:05;25.50;57.60
59977;DHT22;45837;51.076;3.578;2023-06-10T11:54:31;25.50;57.80
59977;DHT22;45837;51.076;3.578;2023-06-10T11:56:57;25.50;57.40
59977;DHT22;45837;51.076;3.578;2023-06-10T11:59:26;25.50;57.00
59977;DHT22;45837;51.076;3.578;2023-06-10T12:01:52;25.40;57.00
59977;DHT22;45837;51.076;3.578;2023-06-10T12:04:17;25.40;56.80
59977;DHT22;45837;51.076;3.578;2023-06-10T12:06:51;25.50;56.30
59977;DHT22;45837;51.076;3.578;2023-06-10T12:11:42;25.50;56.60
59977;DHT22;45837;51.076;3.578;2023-06-10T12:14:09;25.50;55.90
59977;DHT22;45837;51.076;3.578;2023-06-10T12:16:35;25.50;56.20
59977;DHT22;45837;51.076;3.578;2023-06-10T12:19:01;25.50;55.60
59977;DHT22;45837;51.076;3.578;2023-06-10T12:21:27;25.50;55.80
59977;DHT22;45837;51.076;3.578;2023-06-10T12:24:00;25.50;56.70
59977;DHT22;45837;51.076;3.578;2023-06-10T12:29:02;25.50;55.00
59977;DHT22;45837;51.076;3.578;2023-06-10T12:31:28;25.50;55.40
59977;DHT22;45837;51.076;3.578;2023-06-10T12:34:08;25.50;55.20
59977;DHT22;45837;51.076;3.578;2023-06-10T12:36:34;25.40;55.00
59977;DHT22;45837;51.076;3.578;2023-06-10T12:39:03;25.50;55.10
59977;DHT22;45837;51.076;3.578;2023-06-10T12:41:29;25.40;55.10
59977;DHT22;45837;51.076;3.578;2023-06-10T12:43:55;25.50;56.00
59977;DHT22;45837;51.076;3.578;2023-06-10T12:46:20;25.50;55.60
59977;DHT22;45837;51.076;3.578;2023-06-10T12:48:50;25.50;55.80
59977;DHT22;45837;51.076;3.578;2023-06-10T12:51:20;25.50;55.00
59977;DHT22;45837;51.076;3.578;2023-06-10T12:53:46;25.50;55.50
59977;DHT22;45837;51.076;3.578;2023-06-10T12:56:11;25.50;55.40
59977;DHT22;45837;51.076;3.578;2023-06-10T12:58:37;25.60;55.20
59977;DHT22;45837;51.076;3.578;2023-06-10T13:01:03;25.50;55.40
59977;DHT22;45837;51.076;3.578;2023-06-10T13:03:29;25.50;55.50
59977;DHT22;45837;51.076;3.578;2023-06-10T13:05:55;25.50;55.60
59977;DHT22;45837;51.076;3.578;2023-06-10T13:08:21;25.50;55.50
59977;DHT22;45837;51.076;3.578;2023-06-10T13:10:46;25.60;56.00
59977;DHT22;45837;51.076;3.578;2023-06-10T13:13:14;25.60;55.40
59977;DHT22;45837;51.076;3.578;2023-06-10T13:15:40;25.60;56.00
59977;DHT22;45837;51.076;3.578;2023-06-10T13:18:05;25.60;55.60
59977;DHT22;45837;51.076;3.578;2023-06-10T13:20:31;25.60;55.40
59977;DHT22;45837;51.076;3.578;2023-06-10T13:22:57;25.60;55.40
59977;DHT22;45837;51.076;3.578;2023-06-10T13:25:23;25.60;55.80
59977;DHT22;45837;51.076;3.578;2023-06-10T13:27:48;25.60;55.30
59977;DHT22;45837;51.076;3.578;2023-06-10T13:30:14;25.60;55.20
59977;DHT22;45837;51.076;3.578;2023-06-10T13:32:40;25.60;55.30
59977;DHT22;45837;51.076;3.578;2023-06-10T13:35:06;25.60;55.00
59977;DHT22;45837;51.076;3.578;2023-06-10T13:37:32;25.60;54.50
59977;DHT22;45837;51.076;3.578;2023-06-10T13:39:59;25.60;55.00
59977;DHT22;45837;51.076;3.578;2023-06-10T13:42:25;25.60;54.70
59977;DHT22;45837;51.076;3.578;2023-06-10T13:44:51;25.60;55.00
59977;DHT22;45837;51.076;3.578;2023-06-10T13:47:18;25.60;54.70
59977;DHT22;45837;51.076;3.578;2023-06-10T13:49:43;25.60;54.90
59977;DHT22;45837;51.076;3.578;2023-06-10T13:52:09;25.60;55.00
59977;DHT22;45837;51.076;3.578;2023-06-10T13:54:35;25.70;55.40
59977;DHT22;45837;51.076;3.578;2023-06-10T13:57:03;25.70;55.00
59977;DHT22;45837;51.076;3.578;2023-06-10T13:59:29;25.70;54.70
59977;DHT22;45837;51.076;3.578;2023-06-10T14:01:55;25.70;55.10
59977;DHT22;45837;51.076;3.578;2023-06-10T14:04:22;25.70;54.10
59977;DHT22;45837;51.076;3.578;2023-06-10T14:06:47;25.70;54.40
59977;DHT22;45837;51.076;3.578;2023-06-10T14:09:13;25.70;53.90
59977;DHT22;45837;51.076;3.578;2023-06-10T14:11:39;25.60;53.80
59977;DHT22;45837;51.076;3.578;2023-06-10T14:14:05;25.60;53.60
59977;DHT22;45837;51.076;3.578;2023-06-10T14:16:31;25.60;53.70
59977;DHT22;45837;51.076;3.578;2023-06-10T14:18:57;25.60;54.30
59977;DHT22;45837;51.076;3.578;2023-06-10T14:21:22;25.60;53.70
59977;DHT22;45837;51.076;3.578;2023-06-10T14:23:48;25.70;53.50
59977;DHT22;45837;51.076;3.578;2023-06-10T14:26:14;25.70;53.30
59977;DHT22;45837;51.076;3.578;2023-06-10T14:28:40;25.60;53.20
59977;DHT22;45837;51.076;3.578;2023-06-10T14:31:05;25.70;53.20
59977;DHT22;45837;51.076;3.578;2023-06-10T14:33:32;25.60;53.00
59977;DHT22;45837;51.076;3.578;2023-06-10T14:35:58;25.70;53.40
59977;DHT22;45837;51.076;3.578;2023-06-10T14:38:24;25.70;53.20
59977;DHT22;45837;51.076;3.578;2023-06-10T14:40:49;25.70;53.00
59977;DHT22;45837;51.076;3.578;2023-06-10T14:43:15;25.70;52.70
59977;DHT22;45837;51.076;3.578;2023-06-10T14:45:41;25.70;52.80
59977;DHT22;45837;51.076;3.578;2023-06-10T14:48:07;25.70;52.50
59977;DHT22;45837;51.076;3.578;2023-06-10T14:50:34;25.80;52.10
59977;DHT22;45837;51.076;3.578;2023-06-10T14:53:00;25.70;52.70
59977;DHT22;45837;51.076;3.578;2023-06-10T14:55:26;25.80;53.40
59977;DHT22;45837;51.076;3.578;2023-06-10T14:57:52;25.80;52.70
59977;DHT22;45837;51.076;3.578;2023-06-10T15:00:17;25.80;53.10
59977;DHT22;45837;51.076;3.578;2023-06-10T15:02:47;25.80;53.10
59977;DHT22;45837;51.076;3.578;2023-06-10T15:05:14;25.80;53.20
59977;DHT22;45837;51.076;3.578;2023-06-10T15:07:40;25.80;52.70
59977;DHT22;45837;51.076;3.578;2023-06-10T15:10:06;25.80;53.10
59977;DHT22;45837;51.076;3.578;2023-06-10T15:12:32;25.80;53.20
59977;DHT22;45837;51.076;3.578;2023-06-10T15:14:57;25.80;52.90
59977;DHT22;45837;51.076;3.578;2023-06-10T15:17:23;25.80;52.90
59977;DHT22;45837;51.076;3.578;2023-06-10T15:19:49;25.80;53.70
59977;DHT22;45837;51.076;3.578;2023-06-10T15:22:15;25.80;53.00
59977;DHT22;45837;51.076;3.578;2023-06-10T15:24:40;25.80;53.10
59977;DHT22;45837;51.076;3.578;2023-06-10T15:27:06;25.80;53.10
59977;DHT22;45837;51.076;3.578;2023-06-10T15:29:32;25.80;52.90
59977;DHT22;45837;51.076;3.578;2023-06-10T15:31:57;25.80;53.50
59977;DHT22;45837;51.076;3.578;2023-06-10T15:34:23;25.80;53.40
59977;DHT22;45837;51.076;3.578;2023-06-10T15:36:48;25.80;54.00
59977;DHT22;45837;51.076;3.578;2023-06-10T15:39:15;25.80;53.80
59977;DHT22;45837;51.076;3.578;2023-06-10T15:41:41;25.90;54.20
59977;DHT22;45837;51.076;3.578;2023-06-10T15:44:06;25.90;54.00